sensor_id;sensor_type;location;lat;lon;timestamp;pressure;altitude;pressure_sealevel;temperature;humidity
54512;BME280;40419;47.438;19.026;2022-07-29T00:01:08;99851.22;;;23.40;49.52
54512;BME280;40419;47.438;19.026;2022-07-29T00:03:35;99849.09;;;23.61;48.75
54512;BME280;40419;47.438;19.026;2022-07-29T00:06:04;99850.63;;;23.43;49.31
54512;BME280;40419;47.438;19.026;2022-07-29T00:08:38;99848.63;;;23.19;49.79
54512;BME280;40419;47.438;19.026;2022-07-29T00:11:06;99856.81;;;23.29;49.44
54512;BME280;40419;47.438;19.026;2022-07-29T00:13:32;99849.53;;;23.44;49.49
54512;BME280;40419;47.438;19.026;2022-07-29T00:15:59;99849.88;;;23.37;49.23
54512;BME280;40419;47.438;19.026;2022-07-29T00:18:27;99847.84;;;23.13;50.24
54512;BME280;40419;47.438;19.026;2022-07-29T00:20:55;99850.25;;;23.20;49.87
54512;BME280;40419;47.438;19.026;2022-07-29T00:23:21;99852.00;;;23.45;49.38
54512;BME280;40419;47.438;19.026;2022-07-29T00:25:46;99852.28;;;23.44;49.42
54512;BME280;40419;47.438;19.026;2022-07-29T00:28:15;99854.63;;;23.26;49.76
54512;BME280;40419;47.438;19.026;2022-07-29T00:30:40;99851.38;;;23.19;50.17
54512;BME280;40419;47.438;19.026;2022-07-29T00:33:09;99854.16;;;23.14;50.09
54512;BME280;40419;47.438;19.026;2022-07-29T00:35:35;99857.91;;;23.33;49.83
54512;BME280;40419;47.438;19.026;2022-07-29T00:38:15;99854.53;;;23.42;49.77
54512;BME280;40419;47.438;19.026;2022-07-29T00:43:10;99860.72;;;23.23;50.13
54512;BME280;40419;47.438;19.026;2022-07-29T00:45:41;99853.88;;;23.15;50.24
54512;BME280;40419;47.438;19.026;2022-07-29T00:48:09;99844.81;;;23.05;50.66
54512;BME280;40419;47.438;19.026;2022-07-29T00:50:36;99855.94;;;23.34;49.50
54512;BME280;40419;47.438;19.026;2022-07-29T00:53:06;99847.72;;;23.29;49.31
54512;BME280;40419;47.438;19.026;2022-07-29T00:55:37;99855.13;;;23.33;50.08
54512;BME280;40419;47.438;19.026;2022-07-29T00:58:02;99852.25;;;23.09;50.30
54512;BME280;40419;47.438;19.026;2022-07-29T01:00:28;99855.72;;;23.30;49.47
54512;BME280;40419;47.438;19.026;2022-07-29T01:02:57;99858.59;;;23.15;50.10
54512;BME280;40419;47.438;19.026;2022-07-29T01:05:27;99850.72;;;23.32;49.84
54512;BME280;40419;47.438;19.026;2022-07-29T01:07:54;99844.44;;;23.22;50.26
54512;BME280;40419;47.438;19.026;2022-07-29T01:10:23;99843.97;;;23.09;50.39
54512;BME280;40419;47.438;19.026;2022-07-29T01:12:53;99844.84;;;22.99;50.46
54512;BME280;40419;47.438;19.026;2022-07-29T01:15:24;99842.03;;;23.10;50.71
54512;BME280;40419;47.438;19.026;2022-07-29T01:23:35;99848.47;;;22.95;50.81
54512;BME280;40419;47.438;19.026;2022-07-29T01:26:13;99842.09;;;22.99;50.61
54512;BME280;40419;47.438;19.026;2022-07-29T01:31:43;99840.94;;;23.06;50.40
54512;BME280;40419;47.438;19.026;2022-07-29T01:34:18;99839.00;;;23.06;50.62
54512;BME280;40419;47.438;19.026;2022-07-29T01:36:50;99846.00;;;22.93;51.00
54512;BME280;40419;47.438;19.026;2022-07-29T01:39:27;99829.97;;;22.95;50.69
54512;BME280;40419;47.438;19.026;2022-07-29T01:47:19;99831.84;;;23.10;50.67
54512;BME280;40419;47.438;19.026;2022-07-29T01:49:51;99833.25;;;23.03;50.89
54512;BME280;40419;47.438;19.026;2022-07-29T01:52:29;99825.59;;;22.89;51.26
54512;BME280;40419;47.438;19.026;2022-07-29T01:54:58;99831.41;;;22.82;51.82
54512;BME280;40419;47.438;19.026;2022-07-29T01:57:33;99833.69;;;22.75;51.65
54512;BME280;40419;47.438;19.026;2022-07-29T02:00:06;99832.00;;;22.79;51.69
54512;BME280;40419;47.438;19.026;2022-07-29T02:02:44;99829.97;;;22.95;51.55
54512;BME280;40419;47.438;19.026;2022-07-29T02:05:15;99829.41;;;22.98;51.21
54512;BME280;40419;47.438;19.026;2022-07-29T02:07:44;99833.81;;;22.99;51.12
54512;BME280;40419;47.438;19.026;2022-07-29T02:10:12;99834.97;;;22.93;51.44
54512;BME280;40419;47.438;19.026;2022-07-29T02:12:42;99834.91;;;22.98;51.14
54512;BME280;40419;47.438;19.026;2022-07-29T02:15:19;99828.94;;;22.86;51.65
54512;BME280;40419;47.438;19.026;2022-07-29T02:17:56;99830.56;;;22.87;51.67
54512;BME280;40419;47.438;19.026;2022-07-29T02:20:25;99825.78;;;23.03;51.47
54512;BME280;40419;47.438;19.026;2022-07-29T02:22:52;99820.13;;;22.79;51.86
54512;BME280;40419;47.438;19.026;2022-07-29T02:25:18;99824.56;;;22.80;52.14
54512;BME280;40419;47.438;19.026;2022-07-29T02:27:46;99816.56;;;22.78;51.98
54512;BME280;40419;47.438;19.026;2022-07-29T02:30:19;99816.91;;;22.67;52.54
54512;BME280;40419;47.438;19.026;2022-07-29T02:32:51;99823.41;;;22.86;52.01
54512;BME280;40419;47.438;19.026;2022-07-29T02:35:19;99814.09;;;22.77;52.16
54512;BME280;40419;47.438;19.026;2022-07-29T02:37:48;99809.38;;;22.77;52.24
54512;BME280;40419;47.438;19.026;2022-07-29T02:40:46;99827.09;;;22.71;52.11
54512;BME280;40419;47.438;19.026;2022-07-29T02:43:16;99822.69;;;22.65;52.58
54512;BME280;40419;47.438;19.026;2022-07-29T02:45:42;99810.88;;;22.59;53.00
54512;BME280;40419;47.438;19.026;2022-07-29T02:48:13;99812.47;;;22.65;52.96
54512;BME280;40419;47.438;19.026;2022-07-29T02:50:51;99818.56;;;22.62;53.28
54512;BME280;40419;47.438;19.026;2022-07-29T02:53:24;99820.28;;;22.53;54.07
54512;BME280;40419;47.438;19.026;2022-07-29T02:56:04;99814.28;;;22.36;54.50
54512;BME280;40419;47.438;19.026;2022-07-29T02:58:38;99820.91;;;22.35;54.88
54512;BME280;40419;47.438;19.026;2022-07-29T03:01:19;99810.94;;;22.44;54.23
54512;BME280;40419;47.438;19.026;2022-07-29T03:03:46;99814.84;;;22.33;55.14
54512;BME280;40419;47.438;19.026;2022-07-29T03:06:13;99814.84;;;22.33;54.91
54512;BME280;40419;47.438;19.026;2022-07-29T03:08:45;99815.94;;;22.26;55.60
54512;BME280;40419;47.438;19.026;2022-07-29T03:11:14;99809.91;;;22.19;55.80
54512;BME280;40419;47.438;19.026;2022-07-29T03:13:40;99820.41;;;22.12;55.92
54512;BME280;40419;47.438;19.026;2022-07-29T03:16:09;99812.72;;;22.09;55.88
54512;BME280;40419;47.438;19.026;2022-07-29T03:18:39;99814.38;;;22.05;56.22
54512;BME280;40419;47.438;19.026;2022-07-29T03:21:04;99821.56;;;21.95;56.62
54512;BME280;40419;47.438;19.026;2022-07-29T03:23:30;99813.28;;;22.01;56.57
54512;BME280;40419;47.438;19.026;2022-07-29T03:25:56;99815.47;;;22.04;56.26
54512;BME280;40419;47.438;19.026;2022-07-29T03:28:26;99813.28;;;22.06;55.94
54512;BME280;40419;47.438;19.026;2022-07-29T03:30:55;99815.75;;;22.02;56.52
54512;BME280;40419;47.438;19.026;2022-07-29T03:33:20;99824.84;;;22.08;56.24
54512;BME280;40419;47.438;19.026;2022-07-29T03:35:46;99818.19;;;22.14;56.16
54512;BME280;40419;47.438;19.026;2022-07-29T03:38:12;99817.09;;;22.15;56.53
54512;BME280;40419;47.438;19.026;2022-07-29T03:40:48;99820.63;;;22.31;55.71
54512;BME280;40419;47.438;19.026;2022-07-29T03:43:20;99827.25;;;22.30;55.33
54512;BME280;40419;47.438;19.026;2022-07-29T03:45:51;99814.28;;;22.30;55.82
54512;BME280;40419;47.438;19.026;2022-07-29T03:48:21;99817.59;;;22.33;55.49
54512;BME280;40419;47.438;19.026;2022-07-29T03:50:50;99820.06;;;22.34;55.49
54512;BME280;40419;47.438;19.026;2022-07-29T03:53:16;99821.47;;;22.26;55.90
54512;BME280;40419;47.438;19.026;2022-07-29T03:55:50;99826.72;;;22.33;55.58
54512;BME280;40419;47.438;19.026;2022-07-29T03:58:21;99833.06;;;22.23;55.44
54512;BME280;40419;47.438;19.026;2022-07-29T04:00:53;99826.44;;;22.35;55.97
54512;BME280;40419;47.438;19.026;2022-07-29T04:03:21;99836.34;;;22.41;55.37
54512;BME280;40419;47.438;19.026;2022-07-29T04:06:00;99821.41;;;22.47;54.70
54512;BME280;40419;47.438;19.026;2022-07-29T04:08:26;99832.41;;;22.57;54.97
54512;BME280;40419;47.438;19.026;2022-07-29T04:10:54;99825.47;;;22.60;55.30
54512;BME280;40419;47.438;19.026;2022-07-29T04:13:25;99830.66;;;22.72;54.80
54512;BME280;40419;47.438;19.026;2022-07-29T04:15:50;99834.53;;;22.71;55.05
54512;BME280;40419;47.438;19.026;2022-07-29T04:18:16;99830.75;;;22.56;54.93
54512;BME280;40419;47.438;19.026;2022-07-29T04:20:41;99838.41;;;22.64;55.21
54512;BME280;40419;47.438;19.026;2022-07-29T04:23:14;99834.97;;;22.88;53.90
54512;BME280;40419;47.438;19.026;2022-07-29T04:25:42;99832.00;;;22.79;55.13
54512;BME280;40419;47.438;19.026;2022-07-29T04:28:09;99825.13;;;22.77;55.32
54512;BME280;40419;47.438;19.026;2022-07-29T04:30:39;99831.97;;;22.85;54.67
54512;BME280;40419;47.438;19.026;2022-07-29T04:33:07;99830.31;;;22.83;54.09
54512;BME280;40419;47.438;19.026;2022-07-29T04:35:36;99833.88;;;22.89;54.14
54512;BME280;40419;47.438;19.026;2022-07-29T04:38:03;99835.50;;;22.90;54.75
54512;BME280;40419;47.438;19.026;2022-07-29T04:40:31;99832.22;;;22.93;54.46
54512;BME280;40419;47.438;19.026;2022-07-29T04:43:01;99834.25;;;23.17;53.81
54512;BME280;40419;47.438;19.026;2022-07-29T04:45:29;99838.16;;;23.11;54.45
54512;BME280;40419;47.438;19.026;2022-07-29T04:47:55;99838.69;;;23.18;54.12
54512;BME280;40419;47.438;19.026;2022-07-29T04:50:22;99837.75;;;23.33;54.31
54512;BME280;40419;47.438;19.026;2022-07-29T04:52:50;99842.19;;;23.29;54.16
54512;BME280;40419;47.438;19.026;2022-07-29T04:55:19;99838.63;;;23.23;53.80
54512;BME280;40419;47.438;19.026;2022-07-29T04:57:47;99838.72;;;23.47;53.77
54512;BME280;40419;47.438;19.026;2022-07-29T05:00:13;99843.03;;;23.93;53.48
54512;BME280;40419;47.438;19.026;2022-07-29T05:02:41;99836.31;;;23.99;53.60
54512;BME280;40419;47.438;19.026;2022-07-29T05:05:07;99834.75;;;23.93;53.56
54512;BME280;40419;47.438;19.026;2022-07-29T05:07:36;99836.38;;;23.94;53.87
54512;BME280;40419;47.438;19.026;2022-07-29T05:10:06;99837.84;;;24.11;53.27
54512;BME280;40419;47.438;19.026;2022-07-29T05:12:34;99836.91;;;23.96;52.52
54512;BME280;40419;47.438;19.026;2022-07-29T05:15:00;99840.97;;;24.28;52.39
54512;BME280;40419;47.438;19.026;2022-07-29T05:17:31;99836.50;;;24.08;53.15
54512;BME280;40419;47.438;19.026;2022-07-29T05:19:59;99845.97;;;24.26;53.11
54512;BME280;40419;47.438;19.026;2022-07-29T05:22:25;99845.22;;;23.96;53.25
54512;BME280;40419;47.438;19.026;2022-07-29T05:24:56;99840.03;;;24.14;52.98
54512;BME280;40419;47.438;19.026;2022-07-29T05:27:24;99835.66;;;24.32;52.83
54512;BME280;40419;47.438;19.026;2022-07-29T05:29:49;99834.78;;;24.12;52.03
54512;BME280;40419;47.438;19.026;2022-07-29T05:32:17;99840.50;;;24.21;52.12
54512;BME280;40419;47.438;19.026;2022-07-29T05:34:43;99832.47;;;24.44;50.45
54512;BME280;40419;47.438;19.026;2022-07-29T05:37:08;99831.50;;;24.10;50.76
54512;BME280;40419;47.438;19.026;2022-07-29T05:39:43;99848.44;;;24.28;50.03
54512;BME280;40419;47.438;19.026;2022-07-29T05:42:09;99842.38;;;24.01;50.49
54512;BME280;40419;47.438;19.026;2022-07-29T05:44:39;99843.44;;;24.05;51.96
54512;BME280;40419;47.438;19.026;2022-07-29T05:47:07;99850.38;;;24.27;50.70
54512;BME280;40419;47.438;19.026;2022-07-29T05:49:32;99842.03;;;24.32;50.31
54512;BME280;40419;47.438;19.026;2022-07-29T05:52:00;99840.38;;;24.55;49.42
54512;BME280;40419;47.438;19.026;2022-07-29T05:54:26;99843.47;;;24.73;48.91
54512;BME280;40419;47.438;19.026;2022-07-29T05:56:54;99840.97;;;24.52;48.47
54512;BME280;40419;47.438;19.026;2022-07-29T05:59:22;99847.44;;;24.86;48.01
54512;BME280;40419;47.438;19.026;2022-07-29T06:01:49;99852.09;;;24.23;50.00
54512;BME280;40419;47.438;19.026;2022-07-29T06:04:20;99848.63;;;24.12;50.52
54512;BME280;40419;47.438;19.026;2022-07-29T06:06:50;99842.25;;;24.36;49.67
54512;BME280;40419;47.438;19.026;2022-07-29T06:09:18;99862.16;;;24.38;50.50
54512;BME280;40419;47.438;19.026;2022-07-29T06:11:47;99854.34;;;24.21;49.80
54512;BME280;40419;47.438;19.026;2022-07-29T06:14:13;99858.16;;;24.25;50.15
54512;BME280;40419;47.438;19.026;2022-07-29T06:16:41;99856.72;;;24.28;50.17
54512;BME280;40419;47.438;19.026;2022-07-29T06:19:07;99857.75;;;24.37;50.10
54512;BME280;40419;47.438;19.026;2022-07-29T06:21:37;99860.84;;;24.79;49.79
54512;BME280;40419;47.438;19.026;2022-07-29T06:24:06;99857.25;;;24.78;49.28
54512;BME280;40419;47.438;19.026;2022-07-29T06:26:32;99858.06;;;24.79;49.39
54512;BME280;40419;47.438;19.026;2022-07-29T06:29:01;99848.81;;;24.88;49.06
54512;BME280;40419;47.438;19.026;2022-07-29T06:31:27;99858.22;;;24.87;48.74
54512;BME280;40419;47.438;19.026;2022-07-29T06:33:53;99855.22;;;25.22;48.35
54512;BME280;40419;47.438;19.026;2022-07-29T06:36:21;99866.38;;;24.79;48.90
54512;BME280;40419;47.438;19.026;2022-07-29T06:38:47;99863.25;;;25.04;47.96
54512;BME280;40419;47.438;19.026;2022-07-29T06:41:12;99864.34;;;25.22;48.10
54512;BME280;40419;47.438;19.026;2022-07-29T06:43:43;99868.94;;;25.13;47.79
54512;BME280;40419;47.438;19.026;2022-07-29T06:46:14;99864.59;;;25.26;47.24
54512;BME280;40419;47.438;19.026;2022-07-29T06:48:41;99867.00;;;24.94;47.62
54512;BME280;40419;47.438;19.026;2022-07-29T06:51:11;99870.50;;;25.19;47.68
54512;BME280;40419;47.438;19.026;2022-07-29T06:53:42;99859.69;;;25.56;47.84
54512;BME280;40419;47.438;19.026;2022-07-29T06:56:08;99871.84;;;25.74;47.03
54512;BME280;40419;47.438;19.026;2022-07-29T06:58:36;99867.09;;;25.60;46.93
54512;BME280;40419;47.438;19.026;2022-07-29T07:01:06;99860.69;;;25.46;47.39
54512;BME280;40419;47.438;19.026;2022-07-29T07:03:32;99857.22;;;25.87;47.16
54512;BME280;40419;47.438;19.026;2022-07-29T07:05:57;99863.50;;;25.60;47.32
54512;BME280;40419;47.438;19.026;2022-07-29T07:08:23;99863.28;;;25.89;46.63
54512;BME280;40419;47.438;19.026;2022-07-29T07:10:52;99863.84;;;26.19;45.79
54512;BME280;40419;47.438;19.026;2022-07-29T07:13:19;99857.00;;;25.83;46.08
54512;BME280;40419;47.438;19.026;2022-07-29T07:15:46;99856.63;;;26.04;46.41
54512;BME280;40419;47.438;19.026;2022-07-29T07:18:16;99853.16;;;25.98;45.79
54512;BME280;40419;47.438;19.026;2022-07-29T07:20:45;99856.81;;;25.94;47.10
54512;BME280;40419;47.438;19.026;2022-07-29T07:23:10;99856.91;;;25.89;47.19
54512;BME280;40419;47.438;19.026;2022-07-29T07:25:36;99853.34;;;26.02;46.23
54512;BME280;40419;47.438;19.026;2022-07-29T07:28:04;99849.47;;;26.17;46.13
54512;BME280;40419;47.438;19.026;2022-07-29T07:30:29;99853.56;;;26.47;46.28
54512;BME280;40419;47.438;19.026;2022-07-29T07:32:59;99856.00;;;26.63;45.15
54512;BME280;40419;47.438;19.026;2022-07-29T07:35:25;99852.88;;;26.69;45.57
54512;BME280;40419;47.438;19.026;2022-07-29T07:37:58;99852.34;;;26.67;45.31
54512;BME280;40419;47.438;19.026;2022-07-29T07:40:26;99856.38;;;26.98;45.23
54512;BME280;40419;47.438;19.026;2022-07-29T07:42:57;99854.84;;;26.92;45.58
54512;BME280;40419;47.438;19.026;2022-07-29T07:45:25;99845.47;;;27.01;44.88
54512;BME280;40419;47.438;19.026;2022-07-29T07:47:53;99841.53;;;27.16;44.54
54512;BME280;40419;47.438;19.026;2022-07-29T07:50:18;99851.44;;;27.31;44.44
54512;BME280;40419;47.438;19.026;2022-07-29T07:52:50;99853.19;;;27.41;44.62
54512;BME280;40419;47.438;19.026;2022-07-29T07:55:18;99854.66;;;27.70;44.01
54512;BME280;40419;47.438;19.026;2022-07-29T07:57:52;99857.47;;;27.47;43.93
54512;BME280;40419;47.438;19.026;2022-07-29T08:00:17;99855.94;;;27.64;43.20
54512;BME280;40419;47.438;19.026;2022-07-29T08:02:46;99845.72;;;27.50;43.97
54512;BME280;40419;47.438;19.026;2022-07-29T08:05:13;99848.44;;;27.41;43.60
54512;BME280;40419;47.438;19.026;2022-07-29T08:07:45;99845.91;;;27.54;43.50
54512;BME280;40419;47.438;19.026;2022-07-29T08:10:13;99851.22;;;27.41;43.53
54512;BME280;40419;47.438;19.026;2022-07-29T08:12:39;99848.06;;;27.34;43.67
54512;BME280;40419;47.438;19.026;2022-07-29T08:15:07;99857.69;;;27.82;43.45
54512;BME280;40419;47.438;19.026;2022-07-29T08:17:33;99852.88;;;27.97;42.61
54512;BME280;40419;47.438;19.026;2022-07-29T08:19:58;99845.59;;;27.87;43.06
54512;BME280;40419;47.438;19.026;2022-07-29T08:22:32;99852.13;;;27.82;42.85
54512;BME280;40419;47.438;19.026;2022-07-29T08:24:57;99847.75;;;28.21;42.80
54512;BME280;40419;47.438;19.026;2022-07-29T08:27:25;99841.53;;;28.24;41.47
54512;BME280;40419;47.438;19.026;2022-07-29T08:29:58;99844.63;;;27.83;41.87
54512;BME280;40419;47.438;19.026;2022-07-29T08:32:31;99841.53;;;28.24;42.64
54512;BME280;40419;47.438;19.026;2022-07-29T08:34:58;99842.03;;;28.18;41.20
54512;BME280;40419;47.438;19.026;2022-07-29T08:37:26;99842.91;;;28.36;41.54
54512;BME280;40419;47.438;19.026;2022-07-29T08:39:52;99839.50;;;28.48;41.63
54512;BME280;40419;47.438;19.026;2022-07-29T08:42:20;99837.88;;;28.55;41.52
54512;BME280;40419;47.438;19.026;2022-07-29T08:44:48;99842.41;;;28.42;41.23
54512;BME280;40419;47.438;19.026;2022-07-29T08:47:14;99840.47;;;28.52;41.05
54512;BME280;40419;47.438;19.026;2022-07-29T08:49:45;99834.81;;;28.83;40.04
54512;BME280;40419;47.438;19.026;2022-07-29T08:52:14;99831.72;;;29.02;40.06
54512;BME280;40419;47.438;19.026;2022-07-29T08:54:43;99831.88;;;29.14;40.98
54512;BME280;40419;47.438;19.026;2022-07-29T08:57:11;99825.97;;;28.98;39.90
54512;BME280;40419;47.438;19.026;2022-07-29T08:59:40;99815.81;;;29.38;39.09
54512;BME280;40419;47.438;19.026;2022-07-29T09:02:18;99823.53;;;29.41;38.59
54512;BME280;40419;47.438;19.026;2022-07-29T09:04:47;99819.59;;;29.24;38.78
54512;BME280;40419;47.438;19.026;2022-07-29T09:07:16;99825.19;;;29.15;38.86
54512;BME280;40419;47.438;19.026;2022-07-29T09:09:43;99817.66;;;29.25;38.66
54512;BME280;40419;47.438;19.026;2022-07-29T09:12:11;99826.00;;;29.33;38.25
54512;BME280;40419;47.438;19.026;2022-07-29T09:14:38;99823.97;;;29.51;38.47
54512;BME280;40419;47.438;19.026;2022-07-29T09:17:07;99824.94;;;29.82;38.10
54512;BME280;40419;47.438;19.026;2022-07-29T09:19:35;99825.97;;;29.42;37.86
54512;BME280;40419;47.438;19.026;2022-07-29T09:22:05;99817.13;;;29.40;38.06
54512;BME280;40419;47.438;19.026;2022-07-29T09:24:39;99816.78;;;29.50;38.49
54512;BME280;40419;47.438;19.026;2022-07-29T09:27:10;99814.94;;;29.63;38.33
54512;BME280;40419;47.438;19.026;2022-07-29T09:29:41;99814.22;;;30.01;37.12
54512;BME280;40419;47.438;19.026;2022-07-29T09:32:09;99806.38;;;30.25;36.02
54512;BME280;40419;47.438;19.026;2022-07-29T09:34:37;99803.03;;;30.31;35.42
54512;BME280;40419;47.438;19.026;2022-07-29T09:37:06;99803.75;;;30.19;35.70
54512;BME280;40419;47.438;19.026;2022-07-29T09:39:37;99796.31;;;30.32;35.37
54512;BME280;40419;47.438;19.026;2022-07-29T09:42:11;99806.47;;;30.67;35.35
54512;BME280;40419;47.438;19.026;2022-07-29T09:44:47;99799.50;;;30.52;34.90
54512;BME280;40419;47.438;19.026;2022-07-29T09:47:14;99795.22;;;30.54;34.69
54512;BME280;40419;47.438;19.026;2022-07-29T09:49:59;99789.03;;;30.70;35.15
54512;BME280;40419;47.438;19.026;2022-07-29T09:52:27;99788.91;;;30.36;35.53
54512;BME280;40419;47.438;19.026;2022-07-29T09:55:07;99782.81;;;30.64;36.40
54512;BME280;40419;47.438;19.026;2022-07-29T09:57:34;99789.13;;;30.95;34.88
54512;BME280;40419;47.438;19.026;2022-07-29T10:00:17;99789.97;;;30.95;34.21
54512;BME280;40419;47.438;19.026;2022-07-29T10:02:44;99783.22;;;30.96;34.32
54512;BME280;40419;47.438;19.026;2022-07-29T10:05:26;99785.59;;;30.85;33.38
54512;BME280;40419;47.438;19.026;2022-07-29T10:07:59;99789.91;;;31.04;33.84
54512;BME280;40419;47.438;19.026;2022-07-29T10:10:30;99790.16;;;30.90;33.96
54512;BME280;40419;47.438;19.026;2022-07-29T10:13:04;99789.84;;;31.13;33.28
54512;BME280;40419;47.438;19.026;2022-07-29T10:15:34;99791.13;;;31.15;32.86
54512;BME280;40419;47.438;19.026;2022-07-29T10:18:08;99783.69;;;31.19;33.31
54512;BME280;40419;47.438;19.026;2022-07-29T10:20:36;99778.59;;;31.00;33.14
54512;BME280;40419;47.438;19.026;2022-07-29T10:23:05;99772.66;;;31.35;32.24
54512;BME280;40419;47.438;19.026;2022-07-29T10:25:33;99773.09;;;31.25;32.77
54512;BME280;40419;47.438;19.026;2022-07-29T10:28:05;99777.38;;;31.43;32.17
54512;BME280;40419;47.438;19.026;2022-07-29T10:30:31;99782.00;;;31.39;32.99
54512;BME280;40419;47.438;19.026;2022-07-29T10:44:05;99766.16;;;31.89;29.62
54512;BME280;40419;47.438;19.026;2022-07-29T10:46:39;99754.38;;;32.08;29.44
54512;BME280;40419;47.438;19.026;2022-07-29T10:51:55;99765.34;;;31.89;30.25
54512;BME280;40419;47.438;19.026;2022-07-29T10:54:40;99764.63;;;31.79;29.29
54512;BME280;40419;47.438;19.026;2022-07-29T10:57:18;99754.72;;;31.70;29.11
54512;BME280;40419;47.438;19.026;2022-07-29T11:05:08;99748.66;;;32.17;29.73
54512;BME280;40419;47.438;19.026;2022-07-29T11:07:38;99742.25;;;32.17;28.97
54512;BME280;40419;47.438;19.026;2022-07-29T11:15:04;99745.47;;;32.56;30.89
54512;BME280;40419;47.438;19.026;2022-07-29T11:20:37;99739.56;;;32.32;29.41
54512;BME280;40419;47.438;19.026;2022-07-29T11:31:47;99728.47;;;31.87;30.29
54512;BME280;40419;47.438;19.026;2022-07-29T11:34:32;99726.47;;;31.62;29.83
54512;BME280;40419;47.438;19.026;2022-07-29T11:39:38;99709.81;;;32.15;29.06
54512;BME280;40419;47.438;19.026;2022-07-29T11:42:39;99709.34;;;32.26;29.59
54512;BME280;40419;47.438;19.026;2022-07-29T11:45:18;99702.78;;;32.09;29.57
54512;BME280;40419;47.438;19.026;2022-07-29T11:50:18;99711.97;;;32.47;30.21
54512;BME280;40419;47.438;19.026;2022-07-29T11:52:51;99706.06;;;32.36;28.71
54512;BME280;40419;47.438;19.026;2022-07-29T11:55:24;99708.94;;;31.28;29.87
54512;BME280;40419;47.438;19.026;2022-07-29T11:58:00;99713.09;;;31.68;31.11
54512;BME280;40419;47.438;19.026;2022-07-29T12:00:29;99703.63;;;31.73;30.14
54512;BME280;40419;47.438;19.026;2022-07-29T12:02:58;99699.91;;;32.06;30.51
54512;BME280;40419;47.438;19.026;2022-07-29T12:05:36;99705.28;;;32.11;29.42
54512;BME280;40419;47.438;19.026;2022-07-29T12:08:13;99709.81;;;32.03;30.09
54512;BME280;40419;47.438;19.026;2022-07-29T12:10:42;99711.22;;;31.85;30.39
54512;BME280;40419;47.438;19.026;2022-07-29T12:13:11;99703.88;;;31.92;29.69
54512;BME280;40419;47.438;19.026;2022-07-29T12:15:37;99698.16;;;32.01;30.35
54512;BME280;40419;47.438;19.026;2022-07-29T12:18:18;99702.47;;;32.11;29.79
54512;BME280;40419;47.438;19.026;2022-07-29T12:20:45;99691.38;;;31.77;31.09
54512;BME280;40419;47.438;19.026;2022-07-29T12:23:12;99689.56;;;31.36;31.13
54512;BME280;40419;47.438;19.026;2022-07-29T12:25:44;99688.31;;;31.45;31.33
54512;BME280;40419;47.438;19.026;2022-07-29T12:28:13;99670.75;;;31.70;31.86
54512;BME280;40419;47.438;19.026;2022-07-29T12:30:47;99673.19;;;31.96;29.85
54512;BME280;40419;47.438;19.026;2022-07-29T12:33:23;99681.00;;;32.15;30.00
54512;BME280;40419;47.438;19.026;2022-07-29T12:35:56;99669.91;;;32.31;29.51
54512;BME280;40419;47.438;19.026;2022-07-29T12:38:24;99669.44;;;32.04;29.63
54512;BME280;40419;47.438;19.026;2022-07-29T12:40:56;99657.22;;;31.96;30.11
54512;BME280;40419;47.438;19.026;2022-07-29T12:43:23;99668.50;;;32.12;29.52
54512;BME280;40419;47.438;19.026;2022-07-29T12:45:51;99657.34;;;31.88;30.05
54512;BME280;40419;47.438;19.026;2022-07-29T12:48:42;99654.06;;;31.49;30.49
54512;BME280;40419;47.438;19.026;2022-07-29T12:51:09;99656.34;;;31.34;31.01
54512;BME280;40419;47.438;19.026;2022-07-29T12:53:38;99650.06;;;31.37;31.42
54512;BME280;40419;47.438;19.026;2022-07-29T12:56:15;99651.34;;;31.15;31.65
54512;BME280;40419;47.438;19.026;2022-07-29T12:58:44;99647.09;;;30.97;32.41
54512;BME280;40419;47.438;19.026;2022-07-29T13:01:17;99652.88;;;30.91;31.77
54512;BME280;40419;47.438;19.026;2022-07-29T13:03:59;99643.41;;;31.05;30.90
54512;BME280;40419;47.438;19.026;2022-07-29T13:11:39;99628.53;;;31.38;30.96
54512;BME280;40419;47.438;19.026;2022-07-29T13:14:09;99625.66;;;31.59;30.04
54512;BME280;40419;47.438;19.026;2022-07-29T13:16:36;99624.59;;;31.63;29.98
54512;BME280;40419;47.438;19.026;2022-07-29T13:19:10;99617.50;;;31.66;30.65
54512;BME280;40419;47.438;19.026;2022-07-29T13:21:39;99613.63;;;31.71;30.28
54512;BME280;40419;47.438;19.026;2022-07-29T13:24:08;99621.88;;;31.79;29.92
54512;BME280;40419;47.438;19.026;2022-07-29T13:26:40;99618.03;;;31.72;29.22
54512;BME280;40419;47.438;19.026;2022-07-29T13:29:10;99614.91;;;31.73;29.48
54512;BME280;40419;47.438;19.026;2022-07-29T13:31:35;99619.09;;;31.92;29.99
54512;BME280;40419;47.438;19.026;2022-07-29T13:34:01;99615.31;;;32.00;29.37
54512;BME280;40419;47.438;19.026;2022-07-29T13:36:26;99608.78;;;31.96;29.48
54512;BME280;40419;47.438;19.026;2022-07-29T13:38:59;99608.22;;;32.03;29.61
54512;BME280;40419;47.438;19.026;2022-07-29T13:41:26;99613.91;;;32.06;30.18
54512;BME280;40419;47.438;19.026;2022-07-29T13:43:52;99600.41;;;31.96;29.92
54512;BME280;40419;47.438;19.026;2022-07-29T13:46:21;99595.06;;;31.91;29.97
54512;BME280;40419;47.438;19.026;2022-07-29T13:48:49;99604.75;;;31.81;29.67
54512;BME280;40419;47.438;19.026;2022-07-29T13:51:16;99598.53;;;32.00;29.95
54512;BME280;40419;47.438;19.026;2022-07-29T13:53:42;99601.13;;;31.80;29.12
54512;BME280;40419;47.438;19.026;2022-07-29T13:56:13;99599.97;;;31.32;30.05
54512;BME280;40419;47.438;19.026;2022-07-29T13:58:38;99591.34;;;31.13;31.09
54512;BME280;40419;47.438;19.026;2022-07-29T14:01:04;99598.47;;;30.89;31.23
54512;BME280;40419;47.438;19.026;2022-07-29T14:03:29;99586.56;;;30.67;31.67
54512;BME280;40419;47.438;19.026;2022-07-29T14:05:57;99587.13;;;30.61;32.15